createdAt,value
2023-03-04T00:04:35.945Z,11.52
2023-03-04T00:09:39.043Z,12.63
2023-03-04T00:14:42.432Z,14.77
2023-03-04T00:19:46.018Z,11.35
2023-03-04T00:24:48.896Z,13.75
2023-03-04T00:29:51.738Z,10.98
2023-03-04T00:34:54.662Z,11.48
2023-03-04T00:39:57.777Z,15.43
2023-03-04T00:45:00.543Z,15.95
2023-03-04T00:50:03.551Z,14.15
2023-03-04T00:55:07.617Z,10.40
2023-03-04T01:00:14.754Z,9.90
2023-03-04T01:11:09.077Z,8.80
2023-03-04T01:16:13.199Z,10.50
2023-03-04T01:21:16.283Z,10.45
2023-03-04T01:26:19.118Z,12.00
2023-03-04T01:31:23.793Z,9.35
2023-03-04T01:36:27.836Z,11.07
2023-03-04T01:41:31.101Z,11.93
2023-03-04T01:46:34.067Z,11.98
2023-03-04T01:51:37.294Z,9.65
2023-03-04T01:56:40.876Z,13.55
2023-03-04T02:01:47.313Z,13.38
2023-03-04T02:06:52.473Z,14.15
2023-03-04T02:11:56.215Z,14.70
2023-03-04T02:17:00.202Z,13.20
2023-03-04T02:22:03.286Z,11.80
2023-03-04T02:27:06.458Z,12.85
2023-03-04T02:32:13.642Z,12.27
2023-03-04T02:37:18.535Z,16.30
2023-03-04T02:42:22.083Z,11.05
2023-03-04T02:47:25.158Z,10.98
2023-03-04T02:52:29.031Z,16.08
2023-03-04T02:57:33.640Z,11.63
2023-03-04T03:02:37.550Z,13.35
2023-03-04T03:07:40.868Z,17.98
2023-03-04T03:12:43.842Z,16.95
2023-03-04T03:17:48.501Z,14.38
2023-03-04T03:22:51.670Z,15.57
2023-03-04T03:27:54.912Z,14.32
2023-03-04T03:32:58.453Z,15.40
2023-03-04T03:38:01.858Z,15.52
2023-03-04T03:43:05.148Z,15.32
2023-03-04T03:48:08.214Z,15.48
2023-03-04T03:53:11.483Z,13.63
2023-03-04T03:58:14.713Z,16.20
2023-03-04T04:03:18.445Z,14.60
2023-03-04T04:08:21.286Z,16.08
2023-03-04T04:13:24.337Z,18.27
2023-03-04T04:18:27.500Z,17.13
2023-03-04T04:23:30.781Z,15.38
2023-03-04T04:28:34.049Z,18.13
2023-03-04T04:33:37.185Z,20.00
2023-03-04T04:38:40.162Z,22.10
2023-03-04T04:43:43.039Z,17.83
2023-03-04T04:48:46.441Z,18.35
2023-03-04T04:53:49.901Z,17.45
2023-03-04T04:58:55.321Z,18.52
2023-03-04T05:03:58.509Z,18.17
2023-03-04T05:09:02.520Z,18.52
2023-03-04T05:14:05.369Z,21.50
2023-03-04T05:19:08.205Z,22.45
2023-03-04T05:24:11.312Z,20.42
2023-03-04T05:29:14.347Z,19.63
2023-03-04T05:34:17.437Z,19.45
2023-03-04T05:39:20.300Z,18.13
2023-03-04T05:44:23.437Z,17.60
2023-03-04T05:49:26.145Z,16.33
2023-03-04T05:54:29.091Z,16.05
2023-03-04T05:59:32.113Z,17.15
2023-03-04T06:04:35.095Z,14.65
2023-03-04T06:09:38.205Z,17.15
2023-03-04T06:14:41.159Z,16.55
2023-03-04T06:19:44.272Z,14.48
2023-03-04T06:24:47.332Z,15.32
2023-03-04T06:29:50.379Z,16.15
2023-03-04T06:34:53.282Z,16.42
2023-03-04T06:39:56.531Z,14.48
2023-03-04T06:44:59.518Z,16.05
2023-03-04T06:50:04.018Z,12.75
2023-03-04T07:00:10.868Z,15.63
2023-03-04T07:05:13.657Z,17.95
2023-03-04T07:10:18.597Z,14.48
2023-03-04T07:15:21.665Z,12.85
2023-03-04T07:20:24.811Z,14.57
2023-03-04T07:25:27.740Z,11.57
2023-03-04T07:30:30.672Z,14.35
2023-03-04T07:35:33.804Z,12.93
2023-03-04T07:40:37.153Z,16.30
2023-03-04T07:45:40.080Z,14.13
2023-03-04T07:50:43.450Z,12.48
2023-03-04T07:55:48.915Z,15.77
2023-03-04T08:00:51.942Z,12.73
2023-03-04T08:05:55.053Z,12.38
2023-03-04T08:10:57.760Z,12.80
2023-03-04T08:16:00.847Z,16.38
2023-03-04T08:21:09.693Z,14.75
2023-03-04T08:26:19.460Z,15.80
2023-03-04T08:31:22.794Z,21.98
2023-03-04T08:36:25.785Z,16.27
2023-03-04T08:41:29.740Z,16.15
2023-03-04T08:46:32.570Z,14.00
2023-03-04T08:51:36.270Z,19.38
2023-03-04T08:56:40.978Z,17.52
2023-03-04T09:01:43.870Z,15.93
2023-03-04T09:06:47.002Z,16.73
2023-03-04T09:11:50.531Z,15.95
2023-03-04T09:16:53.454Z,16.60
2023-03-04T09:21:57.074Z,16.13
2023-03-04T09:27:00.172Z,17.08
2023-03-04T09:32:03.492Z,26.65
2023-03-04T09:37:06.562Z,16.63
2023-03-04T09:42:17.496Z,17.98
2023-03-04T09:47:23.010Z,18.55
2023-03-04T09:52:42.136Z,19.90
2023-03-04T09:57:59.208Z,18.80
2023-03-04T10:03:14.946Z,16.95
2023-03-04T10:08:32.805Z,17.10
2023-03-04T10:13:47.411Z,19.35
2023-03-04T10:19:12.023Z,19.30
2023-03-04T10:24:18.447Z,19.30
2023-03-04T10:29:24.747Z,14.65
2023-03-04T10:34:28.069Z,16.40
2023-03-04T10:39:37.761Z,20.58
2023-03-04T10:44:44.342Z,18.15
2023-03-04T10:49:58.643Z,18.60
2023-03-04T10:55:06.235Z,14.40
2023-03-04T11:00:18.513Z,16.83
2023-03-04T11:05:26.215Z,10.18
2023-03-04T11:10:38.469Z,15.20
2023-03-04T11:15:58.206Z,11.98
2023-03-04T11:21:01.719Z,14.43
2023-03-04T11:26:19.082Z,15.65
2023-03-04T11:31:32.764Z,15.43
2023-03-04T11:37:05.988Z,15.68
2023-03-04T11:42:41.953Z,14.77
2023-03-04T11:48:29.806Z,17.45
2023-03-04T11:53:55.209Z,16.85
2023-03-04T11:59:39.708Z,16.02
2023-03-04T12:05:05.628Z,18.75
2023-03-04T12:10:16.045Z,16.63
2023-03-04T12:15:22.020Z,16.17
2023-03-04T12:20:30.604Z,16.40
2023-03-04T12:25:36.880Z,22.05
2023-03-04T12:31:03.965Z,17.52
2023-03-04T12:36:25.641Z,17.77
2023-03-04T12:41:47.005Z,19.65
2023-03-04T12:47:11.962Z,17.65
2023-03-04T12:52:33.606Z,16.17
2023-03-04T12:57:37.391Z,17.02
2023-03-04T13:03:31.159Z,22.23
2023-03-04T13:08:52.599Z,19.67
2023-03-04T13:14:08.471Z,15.50
2023-03-04T13:19:48.383Z,12.77
2023-03-04T13:24:52.352Z,15.45
2023-03-04T13:29:55.990Z,15.30
2023-03-04T13:34:59.073Z,15.27
2023-03-04T13:40:27.719Z,13.45
2023-03-04T13:45:36.665Z,13.60
2023-03-04T13:50:45.712Z,14.95
2023-03-04T13:56:29.011Z,14.20
2023-03-04T14:01:33.410Z,12.85
2023-03-04T14:06:42.484Z,10.60
2023-03-04T14:11:45.756Z,13.68
2023-03-04T14:16:51.414Z,12.02
2023-03-04T14:21:54.759Z,15.77
2023-03-04T14:27:12.056Z,11.38
2023-03-04T14:32:15.093Z,15.13
2023-03-04T14:37:34.949Z,13.98
2023-03-04T14:42:45.384Z,13.30
2023-03-04T14:47:49.221Z,13.52
2023-03-04T14:53:07.929Z,14.45
2023-03-04T14:58:22.822Z,15.73
2023-03-04T15:03:28.890Z,17.05
2023-03-04T15:08:37.839Z,13.65
2023-03-04T15:13:46.742Z,16.23
2023-03-04T15:18:58.832Z,14.65
2023-03-04T15:24:03.903Z,14.68
2023-03-04T15:29:18.612Z,15.32
2023-03-04T15:34:21.899Z,16.75
2023-03-04T15:39:25.668Z,18.17
2023-03-04T15:44:28.690Z,12.20
2023-03-04T15:49:32.127Z,17.08
2023-03-04T15:54:35.364Z,14.98
2023-03-04T15:59:38.423Z,18.60
2023-03-04T16:04:41.366Z,18.63
2023-03-04T16:09:44.572Z,17.45
2023-03-04T16:14:47.440Z,16.65
2023-03-04T16:19:50.326Z,18.75
2023-03-04T16:24:55.714Z,17.48
2023-03-04T16:29:58.746Z,19.48
2023-03-04T16:35:02.014Z,17.23
2023-03-04T16:40:06.870Z,16.58
2023-03-04T16:45:19.779Z,20.02
2023-03-04T16:50:27.578Z,19.13
2023-03-04T16:55:32.139Z,18.25
2023-03-04T17:00:35.229Z,17.23
2023-03-04T17:05:38.898Z,17.30
2023-03-04T17:10:42.271Z,17.38
2023-03-04T17:15:47.152Z,18.05
2023-03-04T17:20:50.155Z,18.17
2023-03-04T17:25:58.585Z,18.02
2023-03-04T17:31:02.138Z,23.17
2023-03-04T17:36:05.359Z,16.38
2023-03-04T17:41:11.357Z,16.63
2023-03-04T17:46:16.102Z,17.58
2023-03-04T17:56:21.673Z,19.15
2023-03-04T18:01:25.272Z,18.77
2023-03-04T18:06:28.316Z,19.55
2023-03-04T18:11:32.025Z,18.23
2023-03-04T18:16:35.383Z,16.38
2023-03-04T18:21:38.271Z,21.98
2023-03-04T18:26:41.424Z,21.02
2023-03-04T18:31:44.485Z,18.85
2023-03-04T18:36:48.407Z,16.52
2023-03-04T18:41:51.593Z,15.75
2023-03-04T18:46:57.451Z,19.88
2023-03-04T18:52:00.372Z,17.20
2023-03-04T18:57:13.117Z,16.92
2023-03-04T19:02:50.932Z,20.10
2023-03-04T19:07:54.705Z,20.25
2023-03-04T19:12:59.816Z,19.38
2023-03-04T19:18:02.556Z,17.88
2023-03-04T19:23:10.292Z,18.65
2023-03-04T19:28:13.300Z,21.67
2023-03-04T19:33:16.374Z,18.40
2023-03-04T19:38:19.262Z,19.77
2023-03-04T19:43:22.065Z,17.52
2023-03-04T19:48:25.128Z,26.20
2023-03-04T19:53:27.958Z,20.75
2023-03-04T19:58:30.866Z,26.08
2023-03-04T20:03:34.142Z,20.15
2023-03-04T20:08:38.519Z,20.02
2023-03-04T20:13:41.577Z,20.80
2023-03-04T20:18:44.539Z,28.50
2023-03-04T20:23:47.659Z,18.85
2023-03-04T20:28:51.351Z,18.35
2023-03-04T20:33:55.838Z,20.40
2023-03-04T20:39:08.197Z,18.50
2023-03-04T20:44:15.464Z,20.17
2023-03-04T20:49:24.878Z,19.00
2023-03-04T20:54:28.287Z,18.73
2023-03-04T20:59:31.201Z,21.85
2023-03-04T21:04:34.779Z,18.02
2023-03-04T21:09:37.981Z,17.85
2023-03-04T21:14:41.191Z,27.10
2023-03-04T21:19:44.151Z,17.55
2023-03-04T21:24:48.199Z,20.85
2023-03-04T21:29:51.072Z,20.10
2023-03-04T21:34:55.669Z,20.10
2023-03-04T21:40:01.592Z,22.90
2023-03-04T21:45:07.709Z,19.52
2023-03-04T21:50:11.096Z,18.98
2023-03-04T21:55:15.525Z,23.13
2023-03-04T22:00:18.915Z,20.05
2023-03-04T22:05:21.746Z,20.88
2023-03-04T22:10:24.713Z,22.35
2023-03-04T22:15:27.807Z,22.40
2023-03-04T22:20:31.068Z,20.42
2023-03-04T22:25:39.790Z,19.75
2023-03-04T22:30:42.625Z,23.58
2023-03-04T22:35:45.822Z,24.80
2023-03-04T22:40:49.455Z,24.52
2023-03-04T22:45:52.522Z,24.90
2023-03-04T22:50:55.712Z,23.92
2023-03-04T22:55:59.621Z,25.13
2023-03-04T23:01:04.558Z,27.92
2023-03-04T23:06:16.744Z,23.80
2023-03-04T23:11:26.903Z,29.58
2023-03-04T23:16:29.731Z,25.70
2023-03-04T23:21:34.420Z,20.23
2023-03-04T23:26:40.323Z,23.50
2023-03-04T23:31:44.647Z,23.48
2023-03-04T23:36:47.618Z,21.30
2023-03-04T23:41:50.508Z,25.63
2023-03-04T23:46:54.011Z,21.60
2023-03-04T23:51:57.067Z,24.92
2023-03-04T23:57:01.418Z,21.98
